Time;durP1;ratioP1;P1;durP2;ratioP2;P2;SDS_P1;SDS_P2;PMS_P1;PMS_P2;Temp;Humidity;BMP_temperature;BMP_pressure;BME280_temperature;BME280_humidity;BME280_pressure;Samples;Min_cycle;Max_cycle;Signal;HPM_P1;HPM_P2
2021/05/29 00:02:04;;;;;;;;;11.25;10.50;;;;;17.34;46.03;101649.66;5079472;28;45294;-45
2021/05/29 00:04:30;;;;;;;;;50.00;42.25;;;;;17.31;46.13;101644.44;5079656;27;45340;-48
2021/05/29 00:06:55;;;;;;;;;16.75;14.25;;;;;17.30;46.21;101640.91;5081927;28;45274;-45
2021/05/29 00:09:21;;;;;;;;;11.00;9.00;;;;;17.28;46.08;101640.09;5098579;27;45452;-44
2021/05/29 00:11:46;;;;;;;;;10.50;9.00;;;;;17.18;46.08;101626.19;5082617;27;45255;-49
2021/05/29 00:14:12;;;;;;;;;10.25;9.25;;;;;17.21;46.59;101642.03;5082787;28;45263;-48
2021/05/29 00:16:37;;;;;;;;;10.50;9.25;;;;;17.18;46.96;101642.13;5082773;27;45331;-47
2021/05/29 00:19:03;;;;;;;;;9.75;9.25;;;;;17.14;46.81;101643.09;5082384;27;45572;-44
2021/05/29 00:21:28;;;;;;;;;8.50;8.50;;;;;17.12;47.00;101637.00;5082499;27;45416;-45
2021/05/29 00:23:54;;;;;;;;;12.25;11.00;;;;;17.10;47.13;101641.47;5098189;27;45428;-45
2021/05/29 00:26:19;;;;;;;;;11.25;9.00;;;;;17.07;47.18;101641.56;5098485;27;45251;-46
2021/05/29 00:28:45;;;;;;;;;11.25;10.75;;;;;17.02;47.51;101643.47;5082457;27;45243;-45
2021/05/29 00:31:10;;;;;;;;;10.75;10.75;;;;;16.93;47.62;101630.41;5082434;27;46390;-46
2021/05/29 00:33:35;;;;;;;;;10.00;9.00;;;;;16.93;47.92;101643.69;5082166;27;45218;-46
2021/05/29 00:36:01;;;;;;;;;10.75;10.00;;;;;16.89;47.95;101649.06;5082772;27;45686;-46
2021/05/29 00:38:26;;;;;;;;;11.25;11.25;;;;;16.84;47.89;101635.03;5082343;27;45274;-46
2021/05/29 00:40:52;;;;;;;;;10.50;10.50;;;;;16.86;48.01;101646.47;5082532;27;46305;-49
2021/05/29 00:43:17;;;;;;;;;10.75;10.75;;;;;16.85;47.82;101649.19;5082293;27;45243;-45
2021/05/29 00:45:42;;;;;;;;;14.00;12.00;;;;;16.84;48.42;101650.97;5082688;27;45218;-49
2021/05/29 00:48:08;;;;;;;;;8.25;8.25;;;;;16.81;48.22;101645.72;5082082;27;45487;-47
2021/05/29 00:50:34;;;;;;;;;11.00;11.00;;;;;16.78;48.49;101643.16;5082504;27;45461;-48
2021/05/29 00:53:00;;;;;;;;;11.50;10.75;;;;;16.77;48.56;101641.41;5082031;27;45384;-46
2021/05/29 00:55:26;;;;;;;;;11.50;10.00;;;;;16.78;48.87;101637.84;5082318;28;45346;-45
2021/05/29 00:57:53;;;;;;;;;10.00;10.00;;;;;16.78;48.75;101639.63;5097552;27;45405;-45
2021/05/29 01:00:21;;;;;;;;;11.75;11.50;;;;;16.78;48.78;101643.16;5082241;28;45333;-44
2021/05/29 01:02:47;;;;;;;;;15.25;11.25;;;;;16.73;48.76;101627.34;5080485;28;45274;-46
2021/05/29 01:05:15;;;;;;;;;13.75;11.50;;;;;16.79;48.91;101636.94;5081977;27;45405;-46
2021/05/29 01:07:41;;;;;;;;;10.25;10.25;;;;;16.80;48.42;101630.69;5081833;27;45343;-45
2021/05/29 01:10:08;;;;;;;;;15.75;13.00;;;;;16.81;49.00;101628.94;5081895;27;45946;-45
2021/05/29 01:12:34;;;;;;;;;13.50;12.50;;;;;16.85;49.14;101631.44;5081707;28;45378;-45
2021/05/29 01:15:00;;;;;;;;;12.00;12.00;;;;;16.84;48.65;101626.19;5081962;28;45255;-44
2021/05/29 01:17:28;;;;;;;;;12.75;11.75;;;;;16.88;49.09;101631.38;5080542;27;45223;-47
2021/05/29 01:19:53;;;;;;;;;12.75;12.75;;;;;16.92;48.75;101636.63;5081352;27;46323;-46
2021/05/29 01:22:45;;;;;;;;;14.75;14.75;;;;;16.94;49.15;101632.16;5081617;27;45258;-46
2021/05/29 01:25:13;;;;;;;;;12.00;12.00;;;;;16.96;49.13;101639.19;5081948;28;45274;-47
2021/05/29 01:27:38;;;;;;;;;12.00;10.75;;;;;16.94;49.31;101638.34;5081480;27;45220;-45
2021/05/29 01:30:06;;;;;;;;;15.25;13.75;;;;;16.95;49.08;101637.44;5081471;27;46910;-48
2021/05/29 01:32:34;;;;;;;;;14.50;11.50;;;;;16.98;48.81;101639.13;5079955;28;45338;-44
2021/05/29 01:35:01;;;;;;;;;13.00;13.00;;;;;16.99;49.42;101635.56;5081650;27;45238;-45
2021/05/29 01:37:29;;;;;;;;;12.25;12.25;;;;;17.01;49.35;101639.91;5081385;27;45536;-45
2021/05/29 01:39:54;;;;;;;;;19.50;13.25;;;;;17.02;49.24;101644.31;5081445;28;46123;-48
2021/05/29 01:42:20;;;;;;;;;13.75;11.00;;;;;17.02;49.26;101643.47;5081128;27;45349;-44
2021/05/29 01:44:47;;;;;;;;;12.75;11.25;;;;;17.01;49.45;101647.03;5097202;27;45309;-47
2021/05/29 01:47:12;;;;;;;;;13.75;13.00;;;;;16.95;49.36;101634.78;5080963;27;45405;-47
2021/05/29 01:49:38;;;;;;;;;13.25;11.50;;;;;16.94;49.36;101638.34;5081117;27;46034;-44
2021/05/29 01:52:04;;;;;;;;;13.00;13.00;;;;;16.93;49.70;101638.38;5081137;27;45449;-44
2021/05/29 01:54:29;;;;;;;;;14.50;13.50;;;;;16.89;50.06;101638.44;5096188;27;45329;-45
2021/05/29 01:56:56;;;;;;;;;13.50;12.50;;;;;16.89;49.90;101641.09;5081041;28;45249;-44
2021/05/29 01:59:22;;;;;;;;;12.00;11.75;;;;;16.88;49.83;101647.31;5081079;27;46129;-46
2021/05/29 02:01:47;;;;;;;;;15.00;15.00;;;;;16.86;50.19;101638.50;5081203;27;45220;-46
2021/05/29 02:04:13;;;;;;;;;23.00;14.00;;;;;16.82;49.79;101649.28;5081007;27;45211;-48
2021/05/29 02:06:38;;;;;;;;;16.00;13.75;;;;;16.75;49.89;101640.56;5080978;27;45366;-46
2021/05/29 02:09:04;;;;;;;;;13.75;12.50;;;;;16.71;49.95;101641.56;5081020;27;46220;-45
2021/05/29 02:11:29;;;;;;;;;16.25;16.25;;;;;16.67;50.53;101647.88;5081049;27;45431;-46
2021/05/29 02:13:55;;;;;;;;;17.00;15.50;;;;;16.62;50.88;101640.03;5080945;27;45436;-46
2021/05/29 02:16:20;;;;;;;;;14.25;13.75;;;;;16.56;50.31;101641.06;5080865;27;45471;-44
2021/05/29 02:18:46;;;;;;;;;15.50;15.00;;;;;16.54;50.65;101642.88;5080576;27;46298;-46
2021/05/29 02:21:14;;;;;;;;;17.00;14.50;;;;;16.50;50.93;101645.63;5080473;27;45322;-45
2021/05/29 02:23:47;;;;;;;;;12.75;12.00;;;;;16.45;50.84;101648.38;5080837;28;45296;-46
2021/05/29 02:26:15;;;;;;;;;15.00;15.00;;;;;16.41;51.37;101644.06;5080634;27;45443;-46
2021/05/29 02:28:46;;;;;;;;;14.25;14.25;;;;;16.34;51.50;101645.13;5080263;27;46196;-48
2021/05/29 02:31:13;;;;;;;;;19.25;17.50;;;;;16.29;51.61;101642.59;5080574;27;45291;-49
2021/05/29 02:33:40;;;;;;;;;18.75;16.00;;;;;16.25;51.48;101646.22;5080422;27;45362;-48
2021/05/29 02:36:06;;;;;;;;;19.00;18.25;;;;;16.18;51.62;101641.97;5080505;27;45438;-45
2021/05/29 02:38:35;;;;;;;;;17.50;15.25;;;;;16.19;51.49;101654.34;5080408;27;47271;-47
2021/05/29 02:41:06;;;;;;;;;17.00;16.50;;;;;16.18;52.05;101655.25;5080464;27;45253;-49
2021/05/29 02:43:32;;;;;;;;;16.25;15.00;;;;;16.15;52.18;101655.28;5080367;27;45265;-47
2021/05/29 02:45:57;;;;;;;;;15.75;14.75;;;;;16.13;51.94;101657.13;5080360;27;45248;-44
2021/05/29 02:48:23;;;;;;;;;19.75;16.00;;;;;16.10;52.33;101660.72;5095876;27;48284;-48
2021/05/29 02:50:48;;;;;;;;;17.75;15.75;;;;;16.07;52.72;101666.06;5080390;27;45238;-46
2021/05/29 02:53:15;;;;;;;;;20.00;15.25;;;;;16.03;52.38;101661.75;5080467;27;45211;-45
2021/05/29 02:55:41;;;;;;;;;16.25;15.00;;;;;16.01;52.54;101664.44;5096340;27;45474;-45
2021/05/29 02:58:07;;;;;;;;;18.75;16.25;;;;;15.98;52.25;101663.66;5079973;27;46010;-45
2021/05/29 03:00:42;;;;;;;;;13.50;13.25;;;;;15.98;52.66;101667.16;5080376;27;45348;-45
2021/05/29 03:03:07;;;;;;;;;16.25;14.25;;;;;15.96;52.71;101663.69;5080026;27;45327;-45
2021/05/29 03:05:42;;;;;;;;;17.25;15.00;;;;;15.94;52.61;101668.13;5080064;27;45326;-46
2021/05/29 03:08:09;;;;;;;;;18.75;16.75;;;;;15.91;52.87;101658.47;5080055;28;46059;-43
2021/05/29 03:10:35;;;;;;;;;18.25;14.50;;;;;15.89;52.92;101659.41;5080144;27;45179;-44
2021/05/29 03:13:01;;;;;;;;;16.25;16.25;;;;;15.87;53.10;101656.81;5079939;27;45299;-45
2021/05/29 03:15:28;;;;;;;;;16.50;15.00;;;;;15.83;53.39;101651.59;5095868;27;45408;-44
2021/05/29 03:17:55;;;;;;;;;18.25;16.25;;;;;15.80;53.03;101654.25;5079573;27;46290;-45
2021/05/29 03:20:26;;;;;;;;;16.00;14.50;;;;;15.79;53.04;101655.19;5079892;27;45527;-46
2021/05/29 03:22:52;;;;;;;;;14.50;13.50;;;;;15.78;53.53;101662.25;5079973;27;45425;-46
2021/05/29 03:25:17;;;;;;;;;16.00;14.50;;;;;15.75;53.31;101657.03;5079829;27;45286;-44
2021/05/29 03:27:49;;;;;;;;;15.75;15.25;;;;;15.72;53.49;101662.38;5079858;27;46116;-44
2021/05/29 03:30:17;;;;;;;;;21.25;16.25;;;;;15.66;53.46;101660.75;5079883;27;45232;-45
2021/05/29 03:32:42;;;;;;;;;19.50;18.00;;;;;15.65;53.90;101661.66;5079879;27;45386;-44
2021/05/29 03:35:10;;;;;;;;;13.25;13.00;;;;;15.64;53.84;101662.53;5079846;27;45153;-45
2021/05/29 03:37:36;;;;;;;;;15.00;14.00;;;;;15.62;53.54;101664.34;5079803;28;45435;-45
2021/05/29 03:40:06;;;;;;;;;17.50;17.00;;;;;15.60;53.85;101671.47;5081029;27;45311;-48
2021/05/29 03:42:32;;;;;;;;;20.00;19.00;;;;;15.57;54.24;101675.06;5083321;27;45291;-43
2021/05/29 03:44:57;;;;;;;;;20.75;18.50;;;;;15.54;54.12;101668.94;5083089;27;45491;-48
2021/05/29 03:47:22;;;;;;;;;35.50;30.50;;;;;15.50;54.49;101673.44;5083253;27;45279;-45
2021/05/29 03:49:48;;;;;;;;;29.50;27.25;;;;;15.47;54.40;101664.66;5083372;27;45158;-44
2021/05/29 03:52:13;;;;;;;;;19.50;19.25;;;;;15.44;54.49;101665.59;5083457;27;45449;-43
2021/05/29 03:54:39;;;;;;;;;21.00;20.00;;;;;15.42;54.77;101667.38;5082956;27;45216;-44
2021/05/29 03:57:04;;;;;;;;;18.75;16.25;;;;;15.42;54.64;101676.22;5082940;27;46162;-42
2021/05/29 03:59:30;;;;;;;;;18.25;18.25;;;;;15.36;54.83;101664.91;5082893;28;45287;-45
2021/05/29 04:01:55;;;;;;;;;22.25;18.25;;;;;15.40;54.97;101682.47;5083118;27;45384;-44
2021/05/29 04:04:20;;;;;;;;;16.25;15.50;;;;;15.40;54.83;101679.81;5082745;27;45588;-43
2021/05/29 04:06:46;;;;;;;;;17.75;15.25;;;;;15.37;54.89;101677.22;5082843;27;45342;-47
2021/05/29 04:09:12;;;;;;;;;19.25;17.75;;;;;15.40;54.66;101679.81;5082893;27;45373;-47
2021/05/29 04:11:37;;;;;;;;;17.25;15.50;;;;;15.38;54.71;101679.84;5098623;27;45256;-44
2021/05/29 04:14:08;;;;;;;;;17.75;17.25;;;;;15.39;55.01;101684.22;5083009;27;45338;-48
2021/05/29 04:16:33;;;;;;;;;18.50;18.00;;;;;15.40;54.93;101688.63;5082707;27;46223;-48
2021/05/29 04:18:59;;;;;;;;;20.00;17.75;;;;;15.39;55.13;101692.16;5082451;28;45295;-47
2021/05/29 04:21:25;;;;;;;;;18.25;17.00;;;;;15.37;54.90;101685.16;5082708;27;45455;-47
2021/05/29 04:23:50;;;;;;;;;19.25;18.25;;;;;15.36;55.25;101688.72;5082683;27;45440;-44
2021/05/29 04:26:16;;;;;;;;;20.75;16.50;;;;;15.34;54.92;101690.53;5098375;27;47221;-44
2021/05/29 04:28:41;;;;;;;;;19.25;19.00;;;;;15.37;55.24;101701.03;5082347;27;45389;-44
2021/05/29 04:31:06;;;;;;;;;17.75;17.75;;;;;15.34;55.21;101698.47;5082843;27;45291;-44
2021/05/29 04:33:32;;;;;;;;;18.25;17.25;;;;;15.32;55.41;101701.16;5082049;27;45452;-45
2021/05/29 04:35:58;;;;;;;;;20.75;18.75;;;;;15.37;55.12;101701.03;5098131;27;47534;-44
2021/05/29 04:38:24;;;;;;;;;20.50;18.50;;;;;15.37;55.31;101693.09;5082308;27;45280;-45
2021/05/29 04:40:50;;;;;;;;;19.00;18.50;;;;;15.39;55.36;101699.25;5082695;27;45236;-44
2021/05/29 04:43:16;;;;;;;;;22.00;18.25;;;;;15.40;55.20;101695.69;5082232;27;45445;-45
2021/05/29 04:45:41;;;;;;;;;17.75;16.75;;;;;15.43;55.34;101698.28;5082559;27;46295;-44
2021/05/29 04:48:08;;;;;;;;;19.50;18.00;;;;;15.38;55.20;101693.09;5082002;27;45161;-50
2021/05/29 04:51:11;;;;;;;;;18.75;17.50;;;;;15.45;55.24;101699.13;5082528;27;45315;-45
2021/05/29 04:53:19;;;;;;;;;18.50;17.75;;;;;15.45;55.30;101696.47;5081858;27;45476;-47
2021/05/29 04:55:45;;;;;;;;;18.25;17.00;;;;;15.48;55.64;101708.78;5082093;27;46136;-48
2021/05/29 04:58:10;;;;;;;;;21.25;19.50;;;;;15.51;55.64;101706.06;5081970;27;45393;-46
2021/05/29 05:00:35;;;;;;;;;22.00;21.00;;;;;15.50;55.36;101710.50;5082460;27;45294;-46
2021/05/29 05:03:01;;;;;;;;;28.50;22.50;;;;;15.50;55.66;101713.16;5081873;27;45414;-44
2021/05/29 05:05:26;;;;;;;;;21.00;19.00;;;;;15.48;55.50;101712.31;5081956;27;46096;-47
2021/05/29 05:07:51;;;;;;;;;23.00;22.00;;;;;15.55;55.62;101713.06;5082005;27;45250;-46
2021/05/29 05:10:17;;;;;;;;;46.25;36.25;;;;;15.58;55.57;101715.66;5082177;27;45262;-45
2021/05/29 05:12:43;;;;;;;;;24.50;22.00;;;;;15.59;55.57;101712.09;5097550;27;45523;-48
2021/05/29 05:15:09;;;;;;;;;23.00;22.00;;;;;15.63;55.17;101715.56;5081847;27;46409;-48
2021/05/29 05:17:35;;;;;;;;;25.00;23.25;;;;;15.65;55.13;101721.72;5081644;27;45274;-45
2021/05/29 05:20:00;;;;;;;;;19.75;19.75;;;;;15.66;55.28;101718.16;5081686;27;45396;-45
2021/05/29 05:22:25;;;;;;;;;20.75;20.50;;;;;15.69;55.18;101718.09;5081676;27;46348;-47
2021/05/29 05:24:50;;;;;;;;;21.75;21.00;;;;;15.75;55.31;101723.28;5081583;28;48276;-49
2021/05/29 05:27:16;;;;;;;;;20.00;17.75;;;;;15.77;55.29;101722.34;5081523;27;45231;-49
2021/05/29 05:29:41;;;;;;;;;19.00;17.75;;;;;15.82;55.05;101727.56;5081938;27;45322;-44
2021/05/29 05:32:08;;;;;;;;;21.00;19.00;;;;;15.89;54.97;101729.19;5081467;27;45343;-43
2021/05/29 05:34:33;;;;;;;;;20.75;20.50;;;;;15.98;55.30;101721.97;5081607;27;46464;-48
2021/05/29 05:36:58;;;;;;;;;21.00;21.00;;;;;16.05;55.11;101732.41;5097180;27;45241;-46
2021/05/29 05:39:24;;;;;;;;;21.25;21.00;;;;;16.16;55.04;101741.88;5081670;27;45500;-44
2021/05/29 05:41:49;;;;;;;;;21.25;21.25;;;;;16.23;55.03;101727.59;5081416;27;45436;-45
2021/05/29 05:44:15;;;;;;;;;22.25;20.25;;;;;16.27;54.51;101726.63;5081472;27;46984;-45
2021/05/29 05:46:40;;;;;;;;;21.00;18.75;;;;;16.40;54.26;101736.06;5081268;27;45329;-46
2021/05/29 05:49:06;;;;;;;;;23.75;21.25;;;;;16.50;54.08;101734.06;5081323;27;45338;-46
2021/05/29 05:51:32;;;;;;;;;24.75;21.00;;;;;16.61;54.04;101733.78;5081373;27;46265;-47
2021/05/29 05:53:57;;;;;;;;;20.00;18.50;;;;;16.70;53.73;101740.66;5081183;27;45511;-48
2021/05/29 05:56:26;;;;;;;;;22.75;21.25;;;;;16.82;53.71;101739.53;5080823;28;45322;-44
2021/05/29 05:58:53;;;;;;;;;22.25;18.75;;;;;16.93;53.15;101741.91;5090766;27;45381;-44
2021/05/29 06:01:19;;;;;;;;;20.75;17.75;;;;;17.03;53.04;101748.75;5096631;27;45474;-46
2021/05/29 06:03:45;;;;;;;;;19.00;17.75;;;;;17.15;52.70;101747.56;5080271;27;46182;-48
2021/05/29 06:06:10;;;;;;;;;22.50;21.00;;;;;17.25;52.92;101753.53;5080786;27;45272;-44
2021/05/29 06:08:36;;;;;;;;;21.75;19.75;;;;;17.34;52.13;101761.25;5080112;28;45809;-44
2021/05/29 06:11:02;;;;;;;;;15.25;15.25;;;;;17.47;52.44;101775.06;5081031;27;45267;-46
2021/05/29 06:21:17;;;;;;;;;17.25;15.00;;;;;17.94;50.41;101788.00;5067839;28;45182;-47
2021/05/29 06:23:42;;;;;;;;;15.75;14.50;;;;;18.02;50.21;101789.53;5080502;27;45366;-47
2021/05/29 06:26:08;;;;;;;;;13.75;13.50;;;;;18.08;50.03;101783.16;5080957;27;45469;-49
2021/05/29 06:28:33;;;;;;;;;13.75;13.00;;;;;18.20;49.75;101787.25;5080782;27;45415;-45
2021/05/29 06:30:58;;;;;;;;;13.00;13.00;;;;;18.33;49.56;101788.59;5081115;27;45297;-47
2021/05/29 06:33:24;;;;;;;;;15.25;12.00;;;;;18.44;49.26;101792.72;5080469;27;46288;-51
2021/05/29 06:35:49;;;;;;;;;12.25;12.25;;;;;18.55;48.79;101795.94;5080673;27;45275;-45
2021/05/29 06:38:14;;;;;;;;;15.50;14.75;;;;;18.63;48.51;101788.59;5081084;27;45987;-44
2021/05/29 06:40:40;;;;;;;;;17.00;16.00;;;;;18.72;48.29;101792.75;5080544;27;45465;-44
2021/05/29 06:43:05;;;;;;;;;15.75;15.25;;;;;18.85;47.66;101798.56;5080669;27;45378;-43
2021/05/29 06:45:32;;;;;;;;;21.25;14.00;;;;;18.95;47.37;101797.34;5079182;28;45325;-43
2021/05/29 06:47:58;;;;;;;;;12.25;12.25;;;;;19.07;47.13;101800.53;5080501;27;45332;-47
2021/05/29 06:50:24;;;;;;;;;14.25;13.50;;;;;19.16;46.80;101793.13;5080223;27;45582;-47
2021/05/29 06:52:52;;;;;;;;;12.25;10.50;;;;;19.19;46.79;101797.47;5080272;27;47005;-48
2021/05/29 07:00:45;;;;;;;;;11.50;11.50;;;;;19.42;46.20;101799.38;5079071;28;45369;-49
2021/05/29 07:03:11;;;;;;;;;14.00;11.75;;;;;19.48;45.95;101806.25;5077760;27;46240;-45
2021/05/29 07:05:36;;;;;;;;;13.75;13.00;;;;;19.53;45.75;101806.09;5078912;28;45346;-45
2021/05/29 07:08:02;;;;;;;;;11.75;10.50;;;;;19.58;45.77;101805.00;5095186;27;45379;-46
2021/05/29 07:10:27;;;;;;;;;12.50;11.50;;;;;19.59;45.31;101800.56;5080339;27;45417;-48
2021/05/29 07:12:53;;;;;;;;;13.25;11.25;;;;;19.69;45.30;101796.63;5079935;27;46110;-46
2021/05/29 07:15:18;;;;;;;;;9.50;9.25;;;;;19.77;44.76;101815.03;5081832;27;45252;-43
2021/05/29 07:17:46;;;;;;;;;11.50;9.25;;;;;19.83;44.49;101806.84;5083591;27;45275;-42
2021/05/29 07:20:12;;;;;;;;;11.25;10.75;;;;;19.85;45.40;101815.66;5079493;27;45375;-46
2021/05/29 07:22:38;;;;;;;;;11.50;9.50;;;;;20.22;46.07;101816.97;5083066;28;46195;-66
2021/05/29 07:25:05;;;;;;;;;10.25;10.25;;;;;20.82;49.47;101819.13;5099334;27;45317;-59
2021/05/29 07:27:31;;;;;;;;;8.75;7.75;;;;;21.39;47.12;101816.75;5081939;27;45366;-58
2021/05/29 07:29:57;;;;;;;;;9.00;8.00;;;;;21.89;44.75;101814.66;5081517;27;45363;-62
2021/05/29 07:32:23;;;;;;;;;9.50;8.50;;;;;22.18;43.82;101820.50;5078511;27;46024;-59
2021/05/29 07:34:49;;;;;;;;;7.75;7.75;;;;;22.48;43.53;101815.53;5080946;27;45266;-59
2021/05/29 07:37:14;;;;;;;;;8.00;8.00;;;;;22.66;42.31;101803.06;5064029;28;45937;-61
2021/05/29 07:39:40;;;;;;;;;10.00;7.00;;;;;22.94;42.16;101820.47;5063239;28;45494;-60
2021/05/29 07:42:05;;;;;;;;;9.00;8.50;;;;;23.15;40.67;101815.00;5062927;28;46669;-62
2021/05/29 07:44:31;;;;;;;;;8.00;7.50;;;;;23.32;40.63;101803.44;5063084;28;45253;-63
2021/05/29 07:46:56;;;;;;;;;6.25;6.00;;;;;23.59;43.96;101811.00;5063041;28;45299;-59
2021/05/29 07:49:21;;;;;;;;;5.75;5.25;;;;;23.83;39.85;101817.75;5063064;28;45312;-60
2021/05/29 07:51:47;;;;;;;;;6.00;6.00;;;;;24.13;41.12;101814.38;5062543;28;46105;-46
2021/05/29 07:54:13;;;;;;;;;6.00;4.50;;;;;24.41;39.74;101812.84;5063160;28;45322;-41
2021/05/29 07:56:39;;;;;;;;;5.75;4.50;;;;;24.50;38.93;101823.09;5065796;28;45245;-43
2021/05/29 07:59:07;;;;;;;;;5.00;5.00;;;;;24.55;38.24;101825.50;5082943;27;45426;-43
2021/05/29 08:01:34;;;;;;;;;4.25;4.25;;;;;24.58;37.76;101821.78;5082886;27;45377;-42
2021/05/29 08:04:00;;;;;;;;;5.50;3.75;;;;;24.59;38.98;101826.22;5098826;27;45545;-55
2021/05/29 08:06:26;;;;;;;;;4.25;3.25;;;;;24.69;35.93;101824.78;5081557;28;45437;-48
2021/05/29 08:08:52;;;;;;;;;4.50;4.50;;;;;24.78;34.98;101823.38;5082825;27;45299;-40
2021/05/29 08:11:21;;;;;;;;;4.50;4.25;;;;;24.76;34.29;101830.66;5082602;27;46267;-64
2021/05/29 08:13:47;;;;;;;;;5.50;4.75;;;;;24.54;33.91;101825.59;5098387;27;45720;-47
2021/05/29 08:16:13;;;;;;;;;7.00;6.00;;;;;24.50;33.96;101828.47;5098459;27;45208;-48
2021/05/29 08:18:39;;;;;;;;;4.75;3.25;;;;;24.54;35.68;101826.50;5081266;28;45347;-41
2021/05/29 08:21:05;;;;;;;;;7.00;5.25;;;;;24.66;39.13;101831.19;5082324;27;46168;-43
2021/05/29 08:23:30;;;;;;;;;3.25;3.25;;;;;24.75;36.57;101828.94;5082445;27;45326;-40
2021/05/29 08:25:56;;;;;;;;;4.00;4.00;;;;;24.81;33.66;101832.13;5069573;27;45673;-59
2021/05/29 08:28:21;;;;;;;;;3.75;3.75;;;;;24.83;32.87;101829.38;5079152;27;45568;-44
2021/05/29 08:30:47;;;;;;;;;7.00;7.00;;;;;24.77;33.60;101837.78;5066817;28;45543;-51
2021/05/29 08:33:12;;;;;;;;;6.00;5.00;;;;;24.78;32.39;101824.25;5071977;28;45562;-55
2021/05/29 08:35:37;;;;;;;;;6.75;5.75;;;;;24.77;32.01;101833.25;5067343;28;45469;-45
2021/05/29 08:38:04;;;;;;;;;3.00;3.00;;;;;24.72;31.83;101834.50;5067046;28;45622;-47
2021/05/29 08:40:29;;;;;;;;;5.00;4.00;;;;;24.57;31.42;101833.50;5079563;27;45489;-62
2021/05/29 08:42:55;;;;;;;;;5.00;4.00;;;;;24.45;31.38;101832.34;5073162;28;45450;-59
2021/05/29 08:45:20;;;;;;;;;3.25;3.00;;;;;24.40;31.18;101826.38;5078175;27;45372;-59
2021/05/29 08:47:48;;;;;;;;;6.00;4.25;;;;;24.32;31.14;101832.19;5061772;28;45487;-61
2021/05/29 08:50:15;;;;;;;;;4.25;4.00;;;;;24.30;31.28;101832.28;5067673;28;46642;-60
2021/05/29 08:52:41;;;;;;;;;3.75;3.75;;;;;24.25;31.25;101833.47;5081811;27;45453;-61
2021/05/29 08:55:09;;;;;;;;;3.75;3.75;;;;;24.23;30.68;101830.88;5062282;27;45358;-61
2021/05/29 08:57:36;;;;;;;;;5.00;5.00;;;;;24.26;30.82;101833.38;5061063;28;45449;-62
2021/05/29 09:00:02;;;;;;;;;5.25;4.25;;;;;24.39;31.27;101830.00;5069047;28;47048;-61
2021/05/29 09:02:28;;;;;;;;;2.25;2.25;;;;;24.49;30.45;101831.25;5081152;27;45330;-60
2021/05/29 09:05:11;;;;;;;;;4.00;4.00;;;;;24.50;30.48;101838.34;5097485;27;45200;-62
2021/05/29 09:07:37;;;;;;;;;3.75;3.00;;;;;24.50;30.05;101827.59;5081301;27;45460;-61
2021/05/29 09:10:17;;;;;;;;;3.25;3.25;;;;;24.54;30.11;101839.03;5073235;27;46451;-59
2021/05/29 09:13:10;;;;;;;;;3.50;3.25;;;;;24.57;29.98;101842.41;5081220;27;45468;-60
2021/05/29 09:15:44;;;;;;;;;5.75;5.00;;;;;24.63;30.01;101850.13;5080381;28;45324;-59
2021/05/29 09:18:31;;;;;;;;;3.00;3.00;;;;;24.65;29.78;101848.28;5078862;27;45265;-60
2021/05/29 09:21:19;;;;;;;;;5.50;3.00;;;;;24.56;29.83;101843.38;5072727;28;45349;-60
2021/05/29 09:23:49;;;;;;;;;4.25;4.25;;;;;24.54;30.05;101839.91;5081023;27;45381;-61
2021/05/29 09:26:15;;;;;;;;;5.00;4.00;;;;;24.63;29.92;101842.06;5076649;28;45284;-59
2021/05/29 09:28:43;;;;;;;;;5.75;5.00;;;;;24.69;30.19;101856.16;5072139;28;45420;-61
2021/05/29 09:31:13;;;;;;;;;2.75;2.75;;;;;24.73;30.61;101860.38;5062446;27;45351;-60
2021/05/29 09:33:38;;;;;;;;;3.50;3.50;;;;;24.79;30.24;101854.66;5061442;28;45240;-60
2021/05/29 09:36:09;;;;;;;;;5.50;4.75;;;;;24.83;30.20;101849.03;5074066;28;45325;-59
2021/05/29 09:38:43;;;;;;;;;5.00;4.75;;;;;24.85;29.37;101848.94;5059917;27;45474;-59
2021/05/29 09:41:33;;;;;;;;;3.00;3.00;;;;;24.83;29.46;101838.28;5068357;28;46222;-60
2021/05/29 09:44:07;;;;;;;;;3.00;3.00;;;;;24.94;29.62;101850.25;5063258;28;45398;-60
2021/05/29 09:46:59;;;;;;;;;3.50;3.50;;;;;25.24;30.07;101841.34;5072605;28;45278;-60
2021/05/29 09:49:49;;;;;;;;;5.25;5.25;;;;;25.46;29.41;101849.06;5059356;28;45372;-61
2021/05/29 09:52:25;;;;;;;;;3.50;3.50;;;;;25.76;29.23;101851.69;5060508;28;47061;-60
2021/05/29 09:54:51;;;;;;;;;4.75;4.00;;;;;26.43;28.81;101850.31;5079353;28;45386;-60
2021/05/29 09:57:17;;;;;;;;;8.50;6.50;;;;;27.17;28.60;101848.19;5073587;28;45335;-60
2021/05/29 10:00:12;;;;;;;;;7.00;6.00;;;;;27.99;28.52;101847.97;5075958;27;45484;-60
2021/05/29 10:02:37;;;;;;;;;12.50;6.25;;;;;28.93;27.23;101847.59;5062822;28;47373;-61
2021/05/29 10:05:26;;;;;;;;;4.75;4.00;;;;;29.29;26.09;101853.94;5079099;28;45446;-61
2021/05/29 10:07:51;;;;;;;;;5.00;5.00;;;;;29.09;25.77;101858.13;5081206;28;45359;-60
2021/05/29 10:10:17;;;;;;;;;6.25;4.00;;;;;28.84;25.83;101859.94;5073168;27;45419;-62
2021/05/29 10:12:42;;;;;;;;;3.50;3.50;;;;;30.61;25.41;101861.59;5060655;28;45490;-64
2021/05/29 10:15:11;;;;;;;;;9.75;8.25;;;;;33.91;23.13;101861.56;5060817;28;45331;-62
2021/05/29 10:17:37;;;;;;;;;5.00;5.00;;;;;36.31;20.51;101860.03;5060496;28;45373;-60
2021/05/29 10:20:03;;;;;;;;;5.00;4.00;;;;;37.66;19.67;101870.88;5080401;28;45430;-58
2021/05/29 10:22:30;;;;;;;;;4.25;4.25;;;;;38.87;19.12;101873.50;5065199;27;45311;-50
2021/05/29 10:24:57;;;;;;;;;4.50;4.00;;;;;40.34;17.27;101875.00;5060438;28;45295;-51
2021/05/29 10:27:28;;;;;;;;;4.00;3.50;;;;;42.19;15.99;101879.78;5060640;28;45242;-48
2021/05/29 10:29:54;;;;;;;;;4.00;3.00;;;;;43.16;15.05;101882.44;5073799;28;45475;-47
2021/05/29 10:32:20;;;;;;;;;2.75;2.00;;;;;44.06;13.97;101873.59;5060117;28;46262;-47
2021/05/29 10:35:06;;;;;;;;;3.00;3.00;;;;;45.04;13.57;101873.50;5079291;28;45247;-45
2021/05/29 10:37:34;;;;;;;;;3.00;3.00;;;;;45.92;13.00;101872.47;5065061;27;45184;-51
2021/05/29 10:40:18;;;;;;;;;4.00;4.00;;;;;47.09;12.16;101877.91;5060595;28;45265;-49
2021/05/29 10:42:44;;;;;;;;;2.25;2.25;;;;;48.21;11.76;101877.09;5075459;28;47278;-48
2021/05/29 10:45:36;;;;;;;;;3.50;3.50;;;;;48.90;11.25;101868.59;5060086;28;45228;-46
2021/05/29 10:48:01;;;;;;;;;2.50;2.50;;;;;49.64;9.73;101863.91;5067924;28;45651;-49
2021/05/29 10:51:06;;;;;;;;;3.75;3.75;;;;;50.71;8.08;101871.84;5064611;27;45321;-44
2021/05/29 10:53:45;;;;;;;;;6.00;4.00;;;;;51.49;9.39;101878.03;5059917;28;47189;-46
2021/05/29 10:56:17;;;;;;;;;5.00;5.00;;;;;52.36;8.47;101873.88;5060214;28;45319;-46
2021/05/29 10:58:58;;;;;;;;;5.25;4.25;;;;;53.80;8.61;101867.28;5059836;28;45529;-45
2021/05/29 11:01:33;;;;;;;;;2.50;2.50;;;;;55.34;6.77;101868.03;5072290;28;45480;-52
2021/05/29 11:04:21;;;;;;;;;4.75;3.00;;;;;55.92;6.89;101869.88;5066345;28;46344;-47
2021/05/29 11:06:48;;;;;;;;;3.75;3.75;;;;;56.59;6.26;101873.66;5062003;28;45332;-41
2021/05/29 11:09:14;;;;;;;;;4.50;3.75;;;;;56.88;6.07;101878.25;5058789;28;45251;-41
2021/05/29 11:11:47;;;;;;;;;3.50;3.50;;;;;56.74;5.34;101869.78;5059505;28;45556;-42
2021/05/29 11:14:14;;;;;;;;;4.75;3.75;;;;;57.15;5.59;101870.97;5075529;28;47235;-40
2021/05/29 11:16:45;;;;;;;;;2.00;2.00;;;;;57.21;5.54;101866.91;5059545;28;45243;-42
2021/05/29 11:19:32;;;;;;;;;3.75;3.00;;;;;57.36;4.93;101860.97;5072882;28;45279;-42
2021/05/29 11:21:57;;;;;;;;;4.00;4.00;;;;;57.34;4.51;101876.50;5066792;28;45440;-42
2021/05/29 11:24:22;;;;;;;;;3.25;3.25;;;;;57.57;4.88;101863.34;5064677;27;46325;-40
2021/05/29 11:26:48;;;;;;;;;6.25;5.50;;;;;57.00;4.40;101863.63;5059814;28;45343;-40
2021/05/29 11:29:13;;;;;;;;;3.75;3.75;;;;;53.61;4.84;101849.09;5073235;28;45355;-39
2021/05/29 11:31:46;;;;;;;;;2.00;2.00;;;;;49.99;6.78;101845.94;5059637;28;45360;-40
2021/05/29 11:34:12;;;;;;;;;7.25;5.00;;;;;47.04;7.90;101844.38;5068705;28;46171;-41